sensor_id;sensor_type;location;lat;lon;timestamp;P1;durP1;ratioP1;P2;durP2;ratioP2
22131;SDS011;11232;51.748;19.390;2023-02-28T00:00:17;16.50;;;8.77;;
22131;SDS011;11232;51.748;19.390;2023-02-28T00:02:43;16.97;;;9.27;;
22131;SDS011;11232;51.748;19.390;2023-02-28T00:05:10;19.00;;;9.00;;
22131;SDS011;11232;51.748;19.390;2023-02-28T00:07:36;16.40;;;8.40;;
22131;SDS011;11232;51.748;19.390;2023-02-28T00:10:02;16.80;;;7.93;;
22131;SDS011;11232;51.748;19.390;2023-02-28T00:12:29;20.73;;;9.83;;
22131;SDS011;11232;51.748;19.390;2023-02-28T00:14:55;16.67;;;8.73;;
22131;SDS011;11232;51.748;19.390;2023-02-28T00:17:20;21.33;;;9.40;;
22131;SDS011;11232;51.748;19.390;2023-02-28T00:19:47;14.83;;;7.23;;
22131;SDS011;11232;51.748;19.390;2023-02-28T00:22:14;15.87;;;7.90;;
22131;SDS011;11232;51.748;19.390;2023-02-28T00:24:40;10.77;;;6.27;;
22131;SDS011;11232;51.748;19.390;2023-02-28T00:27:06;11.43;;;5.53;;
22131;SDS011;11232;51.748;19.390;2023-02-28T00:29:32;14.80;;;5.77;;
22131;SDS011;11232;51.748;19.390;2023-02-28T00:31:58;13.20;;;5.80;;
22131;SDS011;11232;51.748;19.390;2023-02-28T00:34:24;10.53;;;5.73;;
22131;SDS011;11232;51.748;19.390;2023-02-28T00:36:50;6.87;;;4.43;;
22131;SDS011;11232;51.748;19.390;2023-02-28T00:39:16;9.00;;;4.80;;
22131;SDS011;11232;51.748;19.390;2023-02-28T00:41:42;10.07;;;5.20;;
22131;SDS011;11232;51.748;19.390;2023-02-28T00:44:08;9.07;;;5.03;;
22131;SDS011;11232;51.748;19.390;2023-02-28T00:46:34;11.17;;;5.67;;
22131;SDS011;11232;51.748;19.390;2023-02-28T00:49:00;12.17;;;5.50;;
22131;SDS011;11232;51.748;19.390;2023-02-28T00:51:26;11.83;;;6.17;;
22131;SDS011;11232;51.748;19.390;2023-02-28T00:53:52;9.10;;;5.20;;
22131;SDS011;11232;51.748;19.390;2023-02-28T00:56:20;11.13;;;5.30;;
22131;SDS011;11232;51.748;19.390;2023-02-28T00:58:46;13.80;;;6.10;;
22131;SDS011;11232;51.748;19.390;2023-02-28T01:01:12;8.80;;;5.70;;
22131;SDS011;11232;51.748;19.390;2023-02-28T01:03:38;13.10;;;6.70;;
22131;SDS011;11232;51.748;19.390;2023-02-28T01:06:04;12.63;;;6.50;;
22131;SDS011;11232;51.748;19.390;2023-02-28T01:08:30;12.93;;;6.43;;
22131;SDS011;11232;51.748;19.390;2023-02-28T01:10:56;14.50;;;6.33;;
22131;SDS011;11232;51.748;19.390;2023-02-28T01:13:22;11.40;;;6.33;;
22131;SDS011;11232;51.748;19.390;2023-02-28T01:15:52;16.27;;;7.30;;
22131;SDS011;11232;51.748;19.390;2023-02-28T01:18:20;11.70;;;6.53;;
22131;SDS011;11232;51.748;19.390;2023-02-28T01:20:47;13.40;;;6.57;;
22131;SDS011;11232;51.748;19.390;2023-02-28T01:23:13;14.17;;;7.30;;
22131;SDS011;11232;51.748;19.390;2023-02-28T01:25:39;18.33;;;7.73;;
22131;SDS011;11232;51.748;19.390;2023-02-28T01:28:05;19.97;;;7.73;;
22131;SDS011;11232;51.748;19.390;2023-02-28T01:30:31;13.73;;;7.43;;
22131;SDS011;11232;51.748;19.390;2023-02-28T01:32:58;15.07;;;8.37;;
22131;SDS011;11232;51.748;19.390;2023-02-28T01:35:24;16.70;;;8.27;;
22131;SDS011;11232;51.748;19.390;2023-02-28T01:37:50;22.13;;;8.53;;
22131;SDS011;11232;51.748;19.390;2023-02-28T01:40:16;17.63;;;8.50;;
22131;SDS011;11232;51.748;19.390;2023-02-28T01:42:42;16.00;;;8.60;;
22131;SDS011;11232;51.748;19.390;2023-02-28T01:47:47;16.23;;;8.10;;
22131;SDS011;11232;51.748;19.390;2023-02-28T01:50:15;14.83;;;7.70;;
22131;SDS011;11232;51.748;19.390;2023-02-28T01:52:42;14.03;;;7.50;;
22131;SDS011;11232;51.748;19.390;2023-02-28T01:55:08;19.10;;;8.63;;
22131;SDS011;11232;51.748;19.390;2023-02-28T01:57:39;17.27;;;7.67;;
22131;SDS011;11232;51.748;19.390;2023-02-28T02:00:10;15.13;;;7.13;;
22131;SDS011;11232;51.748;19.390;2023-02-28T02:02:39;15.67;;;7.27;;
22131;SDS011;11232;51.748;19.390;2023-02-28T02:05:08;13.57;;;6.90;;
22131;SDS011;11232;51.748;19.390;2023-02-28T02:07:35;13.00;;;6.67;;
22131;SDS011;11232;51.748;19.390;2023-02-28T02:10:03;10.40;;;6.53;;
22131;SDS011;11232;51.748;19.390;2023-02-28T02:15:13;14.07;;;6.93;;
22131;SDS011;11232;51.748;19.390;2023-02-28T02:17:47;14.80;;;7.00;;
22131;SDS011;11232;51.748;19.390;2023-02-28T02:25:39;13.73;;;6.80;;
22131;SDS011;11232;51.748;19.390;2023-02-28T02:38:34;11.43;;;6.37;;
22131;SDS011;11232;51.748;19.390;2023-02-28T02:41:04;13.53;;;6.87;;
22131;SDS011;11232;51.748;19.390;2023-02-28T02:46:18;17.20;;;7.50;;
22131;SDS011;11232;51.748;19.390;2023-02-28T02:48:45;17.67;;;7.93;;
22131;SDS011;11232;51.748;19.390;2023-02-28T02:51:13;14.23;;;7.80;;
22131;SDS011;11232;51.748;19.390;2023-02-28T02:53:47;14.87;;;7.77;;
22131;SDS011;11232;51.748;19.390;2023-02-28T02:56:15;16.57;;;7.70;;
22131;SDS011;11232;51.748;19.390;2023-02-28T02:58:42;13.53;;;7.33;;
22131;SDS011;11232;51.748;19.390;2023-02-28T03:01:16;18.00;;;7.80;;
22131;SDS011;11232;51.748;19.390;2023-02-28T03:03:52;18.67;;;8.27;;
22131;SDS011;11232;51.748;19.390;2023-02-28T03:06:18;16.00;;;7.57;;
22131;SDS011;11232;51.748;19.390;2023-02-28T03:08:44;15.00;;;7.80;;
22131;SDS011;11232;51.748;19.390;2023-02-28T03:11:13;13.97;;;8.03;;
22131;SDS011;11232;51.748;19.390;2023-02-28T03:14:05;14.00;;;7.70;;
22131;SDS011;11232;51.748;19.390;2023-02-28T03:16:38;15.53;;;7.97;;
22131;SDS011;11232;51.748;19.390;2023-02-28T03:24:27;18.73;;;7.63;;
22131;SDS011;11232;51.748;19.390;2023-02-28T03:27:09;17.13;;;8.40;;
22131;SDS011;11232;51.748;19.390;2023-02-28T03:29:42;15.90;;;7.50;;
22131;SDS011;11232;51.748;19.390;2023-02-28T03:34:39;19.53;;;8.23;;
22131;SDS011;11232;51.748;19.390;2023-02-28T03:37:08;16.27;;;7.87;;
22131;SDS011;11232;51.748;19.390;2023-02-28T03:39:43;14.80;;;8.03;;
22131;SDS011;11232;51.748;19.390;2023-02-28T03:42:14;16.70;;;8.17;;
22131;SDS011;11232;51.748;19.390;2023-02-28T03:44:42;16.33;;;7.80;;
22131;SDS011;11232;51.748;19.390;2023-02-28T03:47:11;16.70;;;8.20;;
22131;SDS011;11232;51.748;19.390;2023-02-28T03:50:00;17.43;;;7.60;;
22131;SDS011;11232;51.748;19.390;2023-02-28T03:52:25;18.77;;;7.80;;
22131;SDS011;11232;51.748;19.390;2023-02-28T03:54:54;14.87;;;8.27;;
22131;SDS011;11232;51.748;19.390;2023-02-28T03:59:48;16.17;;;8.80;;
22131;SDS011;11232;51.748;19.390;2023-02-28T04:02:18;15.83;;;7.80;;
22131;SDS011;11232;51.748;19.390;2023-02-28T04:04:44;17.60;;;8.37;;
22131;SDS011;11232;51.748;19.390;2023-02-28T04:07:13;17.33;;;8.10;;
22131;SDS011;11232;51.748;19.390;2023-02-28T04:09:41;15.60;;;7.13;;
22131;SDS011;11232;51.748;19.390;2023-02-28T04:12:08;15.63;;;8.10;;
22131;SDS011;11232;51.748;19.390;2023-02-28T04:14:34;17.80;;;8.70;;
22131;SDS011;11232;51.748;19.390;2023-02-28T04:17:00;17.00;;;8.80;;
22131;SDS011;11232;51.748;19.390;2023-02-28T04:19:26;16.17;;;8.60;;
22131;SDS011;11232;51.748;19.390;2023-02-28T04:21:52;21.57;;;9.20;;
22131;SDS011;11232;51.748;19.390;2023-02-28T04:24:20;15.97;;;8.53;;
22131;SDS011;11232;51.748;19.390;2023-02-28T04:26:47;18.53;;;8.90;;
22131;SDS011;11232;51.748;19.390;2023-02-28T04:29:14;15.40;;;8.33;;
22131;SDS011;11232;51.748;19.390;2023-02-28T04:31:43;20.40;;;8.80;;
22131;SDS011;11232;51.748;19.390;2023-02-28T04:34:09;20.27;;;8.60;;
22131;SDS011;11232;51.748;19.390;2023-02-28T04:36:35;16.37;;;8.47;;
22131;SDS011;11232;51.748;19.390;2023-02-28T04:39:01;15.43;;;8.53;;
22131;SDS011;11232;51.748;19.390;2023-02-28T04:41:28;16.60;;;7.70;;
22131;SDS011;11232;51.748;19.390;2023-02-28T04:43:55;16.90;;;8.03;;
22131;SDS011;11232;51.748;19.390;2023-02-28T04:46:21;22.90;;;8.40;;
22131;SDS011;11232;51.748;19.390;2023-02-28T04:48:47;21.47;;;9.00;;
22131;SDS011;11232;51.748;19.390;2023-02-28T04:51:14;20.57;;;8.77;;
22131;SDS011;11232;51.748;19.390;2023-02-28T04:53:41;16.30;;;8.07;;
22131;SDS011;11232;51.748;19.390;2023-02-28T04:56:07;17.20;;;8.57;;
22131;SDS011;11232;51.748;19.390;2023-02-28T04:58:33;18.83;;;8.63;;
22131;SDS011;11232;51.748;19.390;2023-02-28T05:01:04;18.30;;;8.70;;
22131;SDS011;11232;51.748;19.390;2023-02-28T05:03:37;21.87;;;8.73;;
22131;SDS011;11232;51.748;19.390;2023-02-28T05:06:03;16.83;;;7.97;;
22131;SDS011;11232;51.748;19.390;2023-02-28T05:08:29;17.03;;;8.00;;
22131;SDS011;11232;51.748;19.390;2023-02-28T05:10:55;22.37;;;9.33;;
22131;SDS011;11232;51.748;19.390;2023-02-28T05:13:21;18.40;;;8.10;;
22131;SDS011;11232;51.748;19.390;2023-02-28T05:15:47;18.93;;;8.53;;
22131;SDS011;11232;51.748;19.390;2023-02-28T05:18:14;19.03;;;8.77;;
22131;SDS011;11232;51.748;19.390;2023-02-28T05:20:40;19.93;;;8.97;;
22131;SDS011;11232;51.748;19.390;2023-02-28T05:23:06;26.53;;;8.60;;
22131;SDS011;11232;51.748;19.390;2023-02-28T05:25:32;16.67;;;8.60;;
22131;SDS011;11232;51.748;19.390;2023-02-28T05:27:58;25.33;;;9.20;;
22131;SDS011;11232;51.748;19.390;2023-02-28T05:30:24;18.80;;;8.43;;
22131;SDS011;11232;51.748;19.390;2023-02-28T05:32:50;14.10;;;8.27;;
22131;SDS011;11232;51.748;19.390;2023-02-28T05:35:16;20.43;;;9.17;;
22131;SDS011;11232;51.748;19.390;2023-02-28T05:37:43;20.33;;;9.50;;
22131;SDS011;11232;51.748;19.390;2023-02-28T05:40:09;20.33;;;8.97;;
22131;SDS011;11232;51.748;19.390;2023-02-28T05:42:35;20.57;;;8.73;;
22131;SDS011;11232;51.748;19.390;2023-02-28T05:45:02;21.23;;;9.20;;
22131;SDS011;11232;51.748;19.390;2023-02-28T05:47:28;19.03;;;9.13;;
22131;SDS011;11232;51.748;19.390;2023-02-28T05:49:54;24.50;;;10.10;;
22131;SDS011;11232;51.748;19.390;2023-02-28T05:52:20;19.73;;;10.13;;
22131;SDS011;11232;51.748;19.390;2023-02-28T05:54:46;21.07;;;9.97;;
22131;SDS011;11232;51.748;19.390;2023-02-28T05:57:12;22.73;;;11.10;;
22131;SDS011;11232;51.748;19.390;2023-02-28T05:59:38;21.33;;;9.53;;
22131;SDS011;11232;51.748;19.390;2023-02-28T06:02:05;22.73;;;10.57;;
22131;SDS011;11232;51.748;19.390;2023-02-28T06:04:31;20.30;;;10.60;;
22131;SDS011;11232;51.748;19.390;2023-02-28T06:06:57;20.87;;;9.63;;
22131;SDS011;11232;51.748;19.390;2023-02-28T06:09:23;17.40;;;9.30;;
22131;SDS011;11232;51.748;19.390;2023-02-28T06:11:49;21.70;;;9.80;;
22131;SDS011;11232;51.748;19.390;2023-02-28T06:14:16;21.20;;;9.57;;
22131;SDS011;11232;51.748;19.390;2023-02-28T06:16:42;18.97;;;9.13;;
22131;SDS011;11232;51.748;19.390;2023-02-28T06:19:09;19.97;;;9.50;;
22131;SDS011;11232;51.748;19.390;2023-02-28T06:21:35;17.97;;;8.90;;
22131;SDS011;11232;51.748;19.390;2023-02-28T06:24:02;21.93;;;9.83;;
22131;SDS011;11232;51.748;19.390;2023-02-28T06:26:28;26.40;;;9.97;;
22131;SDS011;11232;51.748;19.390;2023-02-28T06:28:54;19.60;;;10.07;;
22131;SDS011;11232;51.748;19.390;2023-02-28T06:31:21;20.20;;;9.87;;
22131;SDS011;11232;51.748;19.390;2023-02-28T06:33:47;21.33;;;9.40;;
22131;SDS011;11232;51.748;19.390;2023-02-28T06:36:14;20.23;;;10.33;;
22131;SDS011;11232;51.748;19.390;2023-02-28T06:38:40;20.67;;;9.83;;
22131;SDS011;11232;51.748;19.390;2023-02-28T06:41:06;18.00;;;9.87;;
22131;SDS011;11232;51.748;19.390;2023-02-28T06:43:34;21.40;;;10.00;;
22131;SDS011;11232;51.748;19.390;2023-02-28T06:46:01;24.53;;;10.93;;
22131;SDS011;11232;51.748;19.390;2023-02-28T06:48:27;21.60;;;10.80;;
22131;SDS011;11232;51.748;19.390;2023-02-28T06:53:28;21.57;;;10.20;;
22131;SDS011;11232;51.748;19.390;2023-02-28T06:55:54;25.07;;;10.57;;
22131;SDS011;11232;51.748;19.390;2023-02-28T06:58:21;22.33;;;10.60;;
22131;SDS011;11232;51.748;19.390;2023-02-28T07:00:49;18.37;;;9.53;;
22131;SDS011;11232;51.748;19.390;2023-02-28T07:03:16;18.67;;;9.03;;
22131;SDS011;11232;51.748;19.390;2023-02-28T07:05:43;18.53;;;8.97;;
22131;SDS011;11232;51.748;19.390;2023-02-28T07:08:09;18.90;;;9.00;;
22131;SDS011;11232;51.748;19.390;2023-02-28T07:10:38;24.63;;;8.57;;
22131;SDS011;11232;51.748;19.390;2023-02-28T07:13:05;16.83;;;8.77;;
22131;SDS011;11232;51.748;19.390;2023-02-28T07:15:32;15.97;;;9.23;;
22131;SDS011;11232;51.748;19.390;2023-02-28T07:17:58;20.53;;;8.70;;
22131;SDS011;11232;51.748;19.390;2023-02-28T07:20:24;18.07;;;8.30;;
22131;SDS011;11232;51.748;19.390;2023-02-28T07:22:50;17.27;;;8.57;;
22131;SDS011;11232;51.748;19.390;2023-02-28T07:25:24;15.67;;;8.00;;
22131;SDS011;11232;51.748;19.390;2023-02-28T07:27:50;18.93;;;9.17;;
22131;SDS011;11232;51.748;19.390;2023-02-28T07:30:17;15.47;;;8.40;;
22131;SDS011;11232;51.748;19.390;2023-02-28T07:32:43;13.97;;;8.10;;
22131;SDS011;11232;51.748;19.390;2023-02-28T07:35:09;13.47;;;8.40;;
22131;SDS011;11232;51.748;19.390;2023-02-28T07:37:35;18.33;;;8.53;;
22131;SDS011;11232;51.748;19.390;2023-02-28T07:40:03;16.03;;;9.00;;
22131;SDS011;11232;51.748;19.390;2023-02-28T07:42:31;13.53;;;8.23;;
22131;SDS011;11232;51.748;19.390;2023-02-28T07:44:57;15.70;;;7.20;;
22131;SDS011;11232;51.748;19.390;2023-02-28T07:47:24;18.23;;;8.07;;
22131;SDS011;11232;51.748;19.390;2023-02-28T07:49:50;10.53;;;7.90;;
22131;SDS011;11232;51.748;19.390;2023-02-28T07:52:16;17.47;;;7.93;;
22131;SDS011;11232;51.748;19.390;2023-02-28T07:54:41;12.17;;;7.87;;
22131;SDS011;11232;51.748;19.390;2023-02-28T07:57:07;12.45;;;7.45;;
22131;SDS011;11232;51.748;19.390;2023-02-28T07:59:33;13.10;;;8.02;;
22131;SDS011;11232;51.748;19.390;2023-02-28T08:01:59;12.77;;;7.60;;
22131;SDS011;11232;51.748;19.390;2023-02-28T08:04:26;13.73;;;8.10;;
22131;SDS011;11232;51.748;19.390;2023-02-28T08:06:52;13.13;;;7.47;;
22131;SDS011;11232;51.748;19.390;2023-02-28T08:09:18;15.63;;;7.63;;
22131;SDS011;11232;51.748;19.390;2023-02-28T08:11:44;12.18;;;7.40;;
22131;SDS011;11232;51.748;19.390;2023-02-28T08:14:10;14.05;;;8.07;;
22131;SDS011;11232;51.748;19.390;2023-02-28T08:16:36;12.13;;;8.43;;
22131;SDS011;11232;51.748;19.390;2023-02-28T08:19:03;11.95;;;8.15;;
22131;SDS011;11232;51.748;19.390;2023-02-28T08:21:29;12.82;;;7.65;;
22131;SDS011;11232;51.748;19.390;2023-02-28T08:23:55;9.60;;;6.70;;
22131;SDS011;11232;51.748;19.390;2023-02-28T08:26:22;14.18;;;8.35;;
22131;SDS011;11232;51.748;19.390;2023-02-28T08:28:48;12.35;;;8.20;;
22131;SDS011;11232;51.748;19.390;2023-02-28T08:31:15;11.18;;;7.82;;
22131;SDS011;11232;51.748;19.390;2023-02-28T08:33:41;12.88;;;7.63;;
22131;SDS011;11232;51.748;19.390;2023-02-28T08:36:09;9.65;;;6.47;;
22131;SDS011;11232;51.748;19.390;2023-02-28T08:38:36;9.77;;;6.72;;
22131;SDS011;11232;51.748;19.390;2023-02-28T08:41:06;8.05;;;6.05;;
22131;SDS011;11232;51.748;19.390;2023-02-28T08:43:33;12.55;;;8.15;;
22131;SDS011;11232;51.748;19.390;2023-02-28T08:45:59;12.45;;;7.80;;
22131;SDS011;11232;51.748;19.390;2023-02-28T08:48:26;19.60;;;7.68;;
22131;SDS011;11232;51.748;19.390;2023-02-28T08:50:56;10.43;;;7.47;;
22131;SDS011;11232;51.748;19.390;2023-02-28T08:53:22;11.63;;;7.57;;
22131;SDS011;11232;51.748;19.390;2023-02-28T08:55:55;10.85;;;7.80;;
22131;SDS011;11232;51.748;19.390;2023-02-28T08:58:21;12.05;;;8.07;;
22131;SDS011;11232;51.748;19.390;2023-02-28T09:00:47;11.05;;;8.02;;
22131;SDS011;11232;51.748;19.390;2023-02-28T09:03:13;9.13;;;7.18;;
22131;SDS011;11232;51.748;19.390;2023-02-28T09:05:39;10.80;;;7.22;;
22131;SDS011;11232;51.748;19.390;2023-02-28T09:08:05;12.07;;;7.97;;
22131;SDS011;11232;51.748;19.390;2023-02-28T09:10:31;12.20;;;7.53;;
22131;SDS011;11232;51.748;19.390;2023-02-28T09:12:57;10.55;;;7.38;;
22131;SDS011;11232;51.748;19.390;2023-02-28T09:15:23;10.35;;;7.05;;
22131;SDS011;11232;51.748;19.390;2023-02-28T09:17:49;9.25;;;6.20;;
22131;SDS011;11232;51.748;19.390;2023-02-28T09:20:15;10.02;;;7.28;;
22131;SDS011;11232;51.748;19.390;2023-02-28T09:22:41;10.50;;;7.97;;
22131;SDS011;11232;51.748;19.390;2023-02-28T09:25:07;8.93;;;7.60;;
22131;SDS011;11232;51.748;19.390;2023-02-28T09:27:33;11.23;;;8.00;;
22131;SDS011;11232;51.748;19.390;2023-02-28T09:29:59;9.93;;;8.10;;
22131;SDS011;11232;51.748;19.390;2023-02-28T09:32:25;10.23;;;7.35;;
22131;SDS011;11232;51.748;19.390;2023-02-28T09:34:51;9.98;;;7.25;;
22131;SDS011;11232;51.748;19.390;2023-02-28T09:37:17;8.57;;;5.75;;
22131;SDS011;11232;51.748;19.390;2023-02-28T09:39:42;8.75;;;5.90;;
22131;SDS011;11232;51.748;19.390;2023-02-28T09:42:12;8.38;;;6.57;;
22131;SDS011;11232;51.748;19.390;2023-02-28T09:44:44;8.95;;;6.57;;
22131;SDS011;11232;51.748;19.390;2023-02-28T09:47:25;9.77;;;7.60;;
22131;SDS011;11232;51.748;19.390;2023-02-28T09:49:52;12.23;;;7.25;;
22131;SDS011;11232;51.748;19.390;2023-02-28T09:52:19;15.45;;;7.43;;
22131;SDS011;11232;51.748;19.390;2023-02-28T09:54:46;9.90;;;7.28;;
22131;SDS011;11232;51.748;19.390;2023-02-28T09:59:53;11.52;;;7.25;;
22131;SDS011;11232;51.748;19.390;2023-02-28T10:02:34;10.15;;;6.90;;
22131;SDS011;11232;51.748;19.390;2023-02-28T10:05:23;12.32;;;7.05;;
22131;SDS011;11232;51.748;19.390;2023-02-28T10:13:00;9.45;;;7.22;;
22131;SDS011;11232;51.748;19.390;2023-02-28T10:15:29;9.45;;;6.72;;
22131;SDS011;11232;51.748;19.390;2023-02-28T10:18:06;9.90;;;7.10;;
22131;SDS011;11232;51.748;19.390;2023-02-28T10:20:35;8.32;;;6.70;;
22131;SDS011;11232;51.748;19.390;2023-02-28T10:23:36;11.75;;;7.13;;
22131;SDS011;11232;51.748;19.390;2023-02-28T10:25:59;8.68;;;7.20;;
22131;SDS011;11232;51.748;19.390;2023-02-28T10:28:26;11.68;;;7.70;;
22131;SDS011;11232;51.748;19.390;2023-02-28T10:30:54;14.25;;;8.13;;
22131;SDS011;11232;51.748;19.390;2023-02-28T10:33:26;11.98;;;7.30;;
22131;SDS011;11232;51.748;19.390;2023-02-28T10:35:53;10.65;;;7.32;;
22131;SDS011;11232;51.748;19.390;2023-02-28T10:38:21;11.00;;;7.60;;
22131;SDS011;11232;51.748;19.390;2023-02-28T10:40:47;10.50;;;7.30;;
22131;SDS011;11232;51.748;19.390;2023-02-28T10:45:40;9.15;;;7.00;;
22131;SDS011;11232;51.748;19.390;2023-02-28T10:58:44;12.85;;;7.90;;
22131;SDS011;11232;51.748;19.390;2023-02-28T11:01:19;13.43;;;7.95;;
22131;SDS011;11232;51.748;19.390;2023-02-28T11:03:45;14.57;;;7.50;;
22131;SDS011;11232;51.748;19.390;2023-02-28T11:06:15;10.80;;;7.90;;
22131;SDS011;11232;51.748;19.390;2023-02-28T11:11:17;10.70;;;7.68;;
22131;SDS011;11232;51.748;19.390;2023-02-28T11:13:44;10.90;;;7.85;;
22131;SDS011;11232;51.748;19.390;2023-02-28T11:16:11;14.15;;;8.25;;
22131;SDS011;11232;51.748;19.390;2023-02-28T11:21:18;10.90;;;8.27;;
22131;SDS011;11232;51.748;19.390;2023-02-28T11:23:45;11.95;;;8.13;;
22131;SDS011;11232;51.748;19.390;2023-02-28T11:26:12;13.80;;;8.95;;
22131;SDS011;11232;51.748;19.390;2023-02-28T11:28:39;14.60;;;8.80;;
22131;SDS011;11232;51.748;19.390;2023-02-28T11:31:16;12.60;;;9.32;;
22131;SDS011;11232;51.748;19.390;2023-02-28T11:33:45;15.80;;;9.00;;
22131;SDS011;11232;51.748;19.390;2023-02-28T11:36:15;13.52;;;9.25;;
22131;SDS011;11232;51.748;19.390;2023-02-28T11:38:42;14.13;;;9.30;;
22131;SDS011;11232;51.748;19.390;2023-02-28T11:49:20;12.98;;;8.27;;
22131;SDS011;11232;51.748;19.390;2023-02-28T11:56:55;16.17;;;9.15;;
22131;SDS011;11232;51.748;19.390;2023-02-28T12:07:09;14.38;;;8.90;;
22131;SDS011;11232;51.748;19.390;2023-02-28T12:17:43;13.05;;;8.35;;
22131;SDS011;11232;51.748;19.390;2023-02-28T12:23:25;12.90;;;9.15;;
22131;SDS011;11232;51.748;19.390;2023-02-28T12:26:58;15.13;;;9.40;;
22131;SDS011;11232;51.748;19.390;2023-02-28T12:28:53;15.90;;;8.80;;
22131;SDS011;11232;51.748;19.390;2023-02-28T12:31:21;23.27;;;9.38;;
22131;SDS011;11232;51.748;19.390;2023-02-28T12:33:53;11.25;;;8.05;;
22131;SDS011;11232;51.748;19.390;2023-02-28T12:36:21;14.43;;;8.27;;
22131;SDS011;11232;51.748;19.390;2023-02-28T12:38:51;15.68;;;8.88;;
22131;SDS011;11232;51.748;19.390;2023-02-28T12:41:20;17.50;;;8.43;;
22131;SDS011;11232;51.748;19.390;2023-02-28T12:43:51;13.02;;;8.35;;
22131;SDS011;11232;51.748;19.390;2023-02-28T12:46:23;13.63;;;8.20;;
22131;SDS011;11232;51.748;19.390;2023-02-28T12:48:53;12.52;;;8.38;;
22131;SDS011;11232;51.748;19.390;2023-02-28T12:51:21;12.85;;;8.40;;
22131;SDS011;11232;51.748;19.390;2023-02-28T12:54:04;15.38;;;8.32;;
22131;SDS011;11232;51.748;19.390;2023-02-28T12:56:44;12.45;;;8.50;;
22131;SDS011;11232;51.748;19.390;2023-02-28T13:01:42;14.27;;;8.52;;
22131;SDS011;11232;51.748;19.390;2023-02-28T13:07:06;13.27;;;8.30;;
22131;SDS011;11232;51.748;19.390;2023-02-28T13:09:36;13.82;;;8.85;;
22131;SDS011;11232;51.748;19.390;2023-02-28T13:12:11;12.25;;;8.43;;
22131;SDS011;11232;51.748;19.390;2023-02-28T13:14:37;12.63;;;8.48;;
22131;SDS011;11232;51.748;19.390;2023-02-28T13:19:45;15.52;;;9.02;;
22131;SDS011;11232;51.748;19.390;2023-02-28T13:22:58;10.98;;;8.30;;
22131;SDS011;11232;51.748;19.390;2023-02-28T13:24:59;13.10;;;8.73;;
22131;SDS011;11232;51.748;19.390;2023-02-28T13:27:32;15.07;;;8.55;;
22131;SDS011;11232;51.748;19.390;2023-02-28T13:29:59;13.43;;;8.80;;
22131;SDS011;11232;51.748;19.390;2023-02-28T13:42:51;16.55;;;9.25;;
22131;SDS011;11232;51.748;19.390;2023-02-28T13:47:28;12.75;;;8.15;;
22131;SDS011;11232;51.748;19.390;2023-02-28T13:50:13;16.33;;;8.90;;
22131;SDS011;11232;51.748;19.390;2023-02-28T13:58:08;13.65;;;8.85;;
22131;SDS011;11232;51.748;19.390;2023-02-28T14:00:47;12.65;;;8.43;;
22131;SDS011;11232;51.748;19.390;2023-02-28T14:06:07;15.30;;;8.82;;
22131;SDS011;11232;51.748;19.390;2023-02-28T14:08:34;14.65;;;8.63;;
22131;SDS011;11232;51.748;19.390;2023-02-28T14:11:04;19.15;;;9.27;;
22131;SDS011;11232;51.748;19.390;2023-02-28T14:13:44;17.02;;;9.00;;
22131;SDS011;11232;51.748;19.390;2023-02-28T14:16:14;14.35;;;8.43;;
22131;SDS011;11232;51.748;19.390;2023-02-28T14:18:49;12.52;;;8.68;;
22131;SDS011;11232;51.748;19.390;2023-02-28T14:21:26;16.33;;;9.02;;
22131;SDS011;11232;51.748;19.390;2023-02-28T14:29:36;14.00;;;9.05;;
22131;SDS011;11232;51.748;19.390;2023-02-28T14:32:15;15.88;;;10.15;;
22131;SDS011;11232;51.748;19.390;2023-02-28T14:34:55;26.85;;;10.68;;
22131;SDS011;11232;51.748;19.390;2023-02-28T14:37:27;15.48;;;9.45;;
22131;SDS011;11232;51.748;19.390;2023-02-28T14:39:53;18.88;;;9.30;;
22131;SDS011;11232;51.748;19.390;2023-02-28T14:42:27;15.55;;;9.98;;
22131;SDS011;11232;51.748;19.390;2023-02-28T14:44:54;13.27;;;9.50;;
22131;SDS011;11232;51.748;19.390;2023-02-28T14:47:21;17.20;;;9.18;;
22131;SDS011;11232;51.748;19.390;2023-02-28T14:49:49;18.23;;;9.75;;
22131;SDS011;11232;51.748;19.390;2023-02-28T14:52:25;17.03;;;9.30;;
22131;SDS011;11232;51.748;19.390;2023-02-28T14:54:53;18.73;;;8.97;;
22131;SDS011;11232;51.748;19.390;2023-02-28T14:57:21;16.37;;;9.20;;
22131;SDS011;11232;51.748;19.390;2023-02-28T14:59:56;16.80;;;9.43;;
22131;SDS011;11232;51.748;19.390;2023-02-28T15:02:23;15.77;;;8.90;;
22131;SDS011;11232;51.748;19.390;2023-02-28T15:04:54;22.70;;;9.17;;
22131;SDS011;11232;51.748;19.390;2023-02-28T15:07:20;19.63;;;9.73;;
22131;SDS011;11232;51.748;19.390;2023-02-28T15:12:39;21.97;;;9.93;;
22131;SDS011;11232;51.748;19.390;2023-02-28T15:15:06;23.50;;;9.07;;
22131;SDS011;11232;51.748;19.390;2023-02-28T15:17:32;14.67;;;8.53;;
22131;SDS011;11232;51.748;19.390;2023-02-28T15:19:59;17.53;;;9.70;;
22131;SDS011;11232;51.748;19.390;2023-02-28T15:22:33;20.17;;;10.17;;
22131;SDS011;11232;51.748;19.390;2023-02-28T15:25:00;18.20;;;10.53;;
22131;SDS011;11232;51.748;19.390;2023-02-28T15:27:29;17.83;;;9.77;;
22131;SDS011;11232;51.748;19.390;2023-02-28T15:29:59;22.90;;;9.97;;
22131;SDS011;11232;51.748;19.390;2023-02-28T15:32:27;18.13;;;10.10;;
22131;SDS011;11232;51.748;19.390;2023-02-28T15:34:53;17.47;;;10.00;;
22131;SDS011;11232;51.748;19.390;2023-02-28T15:40:07;23.37;;;10.07;;
22131;SDS011;11232;51.748;19.390;2023-02-28T15:42:36;19.00;;;9.63;;
22131;SDS011;11232;51.748;19.390;2023-02-28T15:45:02;19.50;;;10.30;;
22131;SDS011;11232;51.748;19.390;2023-02-28T15:47:29;18.63;;;10.13;;
22131;SDS011;11232;51.748;19.390;2023-02-28T15:50:04;17.67;;;10.17;;
22131;SDS011;11232;51.748;19.390;2023-02-28T15:54:58;19.00;;;10.33;;
22131;SDS011;11232;51.748;19.390;2023-02-28T15:57:25;20.00;;;10.63;;
22131;SDS011;11232;51.748;19.390;2023-02-28T15:59:55;22.53;;;10.37;;
22131;SDS011;11232;51.748;19.390;2023-02-28T16:02:32;24.83;;;12.37;;
22131;SDS011;11232;51.748;19.390;2023-02-28T16:07:40;21.33;;;12.57;;
22131;SDS011;11232;51.748;19.390;2023-02-28T16:10:08;31.60;;;12.87;;
22131;SDS011;11232;51.748;19.390;2023-02-28T16:12:36;30.23;;;12.27;;
22131;SDS011;11232;51.748;19.390;2023-02-28T16:15:07;24.67;;;12.13;;
22131;SDS011;11232;51.748;19.390;2023-02-28T16:17:34;28.10;;;12.77;;
22131;SDS011;11232;51.748;19.390;2023-02-28T16:20:01;26.63;;;12.77;;
22131;SDS011;11232;51.748;19.390;2023-02-28T16:22:30;29.37;;;13.03;;
22131;SDS011;11232;51.748;19.390;2023-02-28T16:24:56;35.00;;;13.67;;
22131;SDS011;11232;51.748;19.390;2023-02-28T16:27:30;29.40;;;13.60;;
22131;SDS011;11232;51.748;19.390;2023-02-28T16:29:56;31.93;;;14.33;;
22131;SDS011;11232;51.748;19.390;2023-02-28T16:32:23;31.80;;;15.00;;
22131;SDS011;11232;51.748;19.390;2023-02-28T16:34:49;28.97;;;14.27;;
22131;SDS011;11232;51.748;19.390;2023-02-28T16:37:16;35.03;;;15.40;;
22131;SDS011;11232;51.748;19.390;2023-02-28T16:39:43;41.80;;;15.53;;
22131;SDS011;11232;51.748;19.390;2023-02-28T16:42:16;34.60;;;15.60;;
22131;SDS011;11232;51.748;19.390;2023-02-28T16:44:43;34.93;;;16.37;;
22131;SDS011;11232;51.748;19.390;2023-02-28T16:47:10;36.13;;;16.87;;